sensor_id;sensor_type;location;lat;lon;timestamp;temperature;humidity
48686;DHT22;34485;51.536;3.816;2022-10-13T00:01:53;13.30;99.90
48686;DHT22;34485;51.536;3.816;2022-10-13T00:04:19;13.20;99.90
48686;DHT22;34485;51.536;3.816;2022-10-13T00:06:44;13.20;99.90
48686;DHT22;34485;51.536;3.816;2022-10-13T00:09:10;13.20;99.90
48686;DHT22;34485;51.536;3.816;2022-10-13T00:11:36;13.20;99.90
48686;DHT22;34485;51.536;3.816;2022-10-13T00:14:02;13.20;99.90
48686;DHT22;34485;51.536;3.816;2022-10-13T00:16:29;13.20;99.90
48686;DHT22;34485;51.536;3.816;2022-10-13T00:18:55;13.20;99.90
48686;DHT22;34485;51.536;3.816;2022-10-13T00:21:23;13.20;99.90
48686;DHT22;34485;51.536;3.816;2022-10-13T00:23:50;13.30;99.90
48686;DHT22;34485;51.536;3.816;2022-10-13T00:26:16;13.30;99.90
48686;DHT22;34485;51.536;3.816;2022-10-13T00:28:42;13.30;99.90
48686;DHT22;34485;51.536;3.816;2022-10-13T00:31:34;13.30;99.90
48686;DHT22;34485;51.536;3.816;2022-10-13T00:34:00;13.40;99.90
48686;DHT22;34485;51.536;3.816;2022-10-13T00:36:27;13.40;99.90
48686;DHT22;34485;51.536;3.816;2022-10-13T00:38:53;13.40;99.90
48686;DHT22;34485;51.536;3.816;2022-10-13T00:41:19;13.40;99.90
48686;DHT22;34485;51.536;3.816;2022-10-13T00:44:05;13.40;99.90
48686;DHT22;34485;51.536;3.816;2022-10-13T00:46:33;13.40;99.90
48686;DHT22;34485;51.536;3.816;2022-10-13T00:49:11;13.40;99.90
48686;DHT22;34485;51.536;3.816;2022-10-13T00:51:44;13.40;99.90
48686;DHT22;34485;51.536;3.816;2022-10-13T00:54:14;13.40;99.90
48686;DHT22;34485;51.536;3.816;2022-10-13T00:56:40;13.30;99.90
48686;DHT22;34485;51.536;3.816;2022-10-13T00:59:14;13.30;99.90
48686;DHT22;34485;51.536;3.816;2022-10-13T01:01:43;13.30;99.90
48686;DHT22;34485;51.536;3.816;2022-10-13T01:04:09;13.30;99.90
48686;DHT22;34485;51.536;3.816;2022-10-13T01:06:35;13.30;99.90
48686;DHT22;34485;51.536;3.816;2022-10-13T01:09:01;13.30;99.90
48686;DHT22;34485;51.536;3.816;2022-10-13T01:11:52;13.30;99.90
48686;DHT22;34485;51.536;3.816;2022-10-13T01:30:27;13.40;99.90
48686;DHT22;34485;51.536;3.816;2022-10-13T01:33:34;13.40;99.90
48686;DHT22;34485;51.536;3.816;2022-10-13T01:36:30;13.40;99.90
48686;DHT22;34485;51.536;3.816;2022-10-13T01:41:56;13.40;99.90
48686;DHT22;34485;51.536;3.816;2022-10-13T01:44:35;13.50;99.90
48686;DHT22;34485;51.536;3.816;2022-10-13T01:47:02;13.40;99.90
48686;DHT22;34485;51.536;3.816;2022-10-13T01:49:33;13.50;99.90
48686;DHT22;34485;51.536;3.816;2022-10-13T01:52:02;13.50;99.90
48686;DHT22;34485;51.536;3.816;2022-10-13T01:54:29;13.50;99.90
48686;DHT22;34485;51.536;3.816;2022-10-13T01:56:55;13.50;99.90
48686;DHT22;34485;51.536;3.816;2022-10-13T01:59:22;13.50;99.90
48686;DHT22;34485;51.536;3.816;2022-10-13T02:04:52;13.60;99.90
48686;DHT22;34485;51.536;3.816;2022-10-13T02:10:10;13.60;99.90
48686;DHT22;34485;51.536;3.816;2022-10-13T02:12:49;13.60;99.90
48686;DHT22;34485;51.536;3.816;2022-10-13T02:15:20;13.60;99.90
48686;DHT22;34485;51.536;3.816;2022-10-13T02:17:47;13.60;99.90
48686;DHT22;34485;51.536;3.816;2022-10-13T02:20:15;13.60;99.90
48686;DHT22;34485;51.536;3.816;2022-10-13T02:22:45;13.60;99.90
48686;DHT22;34485;51.536;3.816;2022-10-13T02:25:11;13.50;99.90
48686;DHT22;34485;51.536;3.816;2022-10-13T02:27:37;13.50;99.90
48686;DHT22;34485;51.536;3.816;2022-10-13T02:30:03;13.50;99.90
48686;DHT22;34485;51.536;3.816;2022-10-13T02:32:29;13.50;99.90
48686;DHT22;34485;51.536;3.816;2022-10-13T02:34:54;13.50;99.90
48686;DHT22;34485;51.536;3.816;2022-10-13T02:37:20;13.50;99.90
48686;DHT22;34485;51.536;3.816;2022-10-13T02:39:46;13.50;99.90
48686;DHT22;34485;51.536;3.816;2022-10-13T02:42:11;13.40;99.90
48686;DHT22;34485;51.536;3.816;2022-10-13T02:44:37;13.40;99.90
48686;DHT22;34485;51.536;3.816;2022-10-13T02:47:04;13.30;99.90
48686;DHT22;34485;51.536;3.816;2022-10-13T02:49:30;13.30;99.90
48686;DHT22;34485;51.536;3.816;2022-10-13T02:51:55;13.30;99.90
48686;DHT22;34485;51.536;3.816;2022-10-13T02:54:21;13.30;99.90
48686;DHT22;34485;51.536;3.816;2022-10-13T02:56:47;13.30;99.90
48686;DHT22;34485;51.536;3.816;2022-10-13T02:59:12;13.30;99.90
48686;DHT22;34485;51.536;3.816;2022-10-13T03:01:38;13.30;99.90
48686;DHT22;34485;51.536;3.816;2022-10-13T03:04:09;13.30;99.90
48686;DHT22;34485;51.536;3.816;2022-10-13T03:06:35;13.30;99.90
48686;DHT22;34485;51.536;3.816;2022-10-13T03:09:01;13.30;99.90
48686;DHT22;34485;51.536;3.816;2022-10-13T03:11:26;13.30;99.90
48686;DHT22;34485;51.536;3.816;2022-10-13T03:13:52;13.30;99.90
48686;DHT22;34485;51.536;3.816;2022-10-13T03:16:17;13.30;99.90
48686;DHT22;34485;51.536;3.816;2022-10-13T03:18:43;13.30;99.90
48686;DHT22;34485;51.536;3.816;2022-10-13T03:21:09;13.30;99.90
48686;DHT22;34485;51.536;3.816;2022-10-13T03:23:35;13.30;99.90
48686;DHT22;34485;51.536;3.816;2022-10-13T03:26:00;13.30;99.90
48686;DHT22;34485;51.536;3.816;2022-10-13T03:28:26;13.30;99.90
48686;DHT22;34485;51.536;3.816;2022-10-13T03:31:07;13.40;99.90
48686;DHT22;34485;51.536;3.816;2022-10-13T03:33:33;13.30;99.90
48686;DHT22;34485;51.536;3.816;2022-10-13T03:35:59;13.30;99.90
48686;DHT22;34485;51.536;3.816;2022-10-13T03:38:29;13.30;99.90
48686;DHT22;34485;51.536;3.816;2022-10-13T03:40:55;13.30;99.90
48686;DHT22;34485;51.536;3.816;2022-10-13T03:43:21;13.40;99.90
48686;DHT22;34485;51.536;3.816;2022-10-13T03:46:01;13.40;99.90
48686;DHT22;34485;51.536;3.816;2022-10-13T03:48:28;13.40;99.90
48686;DHT22;34485;51.536;3.816;2022-10-13T03:50:54;13.40;99.90
48686;DHT22;34485;51.536;3.816;2022-10-13T03:53:20;13.40;99.90
48686;DHT22;34485;51.536;3.816;2022-10-13T03:55:54;13.40;99.90
48686;DHT22;34485;51.536;3.816;2022-10-13T03:58:21;13.40;99.90
48686;DHT22;34485;51.536;3.816;2022-10-13T04:00:48;13.40;99.90
48686;DHT22;34485;51.536;3.816;2022-10-13T04:03:15;13.40;99.90
48686;DHT22;34485;51.536;3.816;2022-10-13T04:05:41;13.40;99.90
48686;DHT22;34485;51.536;3.816;2022-10-13T04:08:07;13.40;99.90
48686;DHT22;34485;51.536;3.816;2022-10-13T04:10:33;13.40;99.90
48686;DHT22;34485;51.536;3.816;2022-10-13T04:12:58;13.40;99.90
48686;DHT22;34485;51.536;3.816;2022-10-13T04:15:24;13.40;99.90
48686;DHT22;34485;51.536;3.816;2022-10-13T04:17:50;13.40;99.90
48686;DHT22;34485;51.536;3.816;2022-10-13T04:20:16;13.40;99.90
48686;DHT22;34485;51.536;3.816;2022-10-13T04:22:41;13.40;99.90
48686;DHT22;34485;51.536;3.816;2022-10-13T04:25:07;13.40;99.90
48686;DHT22;34485;51.536;3.816;2022-10-13T04:27:33;13.30;99.90
48686;DHT22;34485;51.536;3.816;2022-10-13T04:30:05;13.30;99.90
48686;DHT22;34485;51.536;3.816;2022-10-13T04:32:31;13.30;99.90
48686;DHT22;34485;51.536;3.816;2022-10-13T04:34:57;13.40;99.90
48686;DHT22;34485;51.536;3.816;2022-10-13T04:37:23;13.40;99.90
48686;DHT22;34485;51.536;3.816;2022-10-13T04:39:49;13.40;99.90
48686;DHT22;34485;51.536;3.816;2022-10-13T04:42:15;13.40;99.90
48686;DHT22;34485;51.536;3.816;2022-10-13T04:44:40;13.40;99.90
48686;DHT22;34485;51.536;3.816;2022-10-13T04:47:06;13.40;99.90
48686;DHT22;34485;51.536;3.816;2022-10-13T04:49:32;13.40;99.90
48686;DHT22;34485;51.536;3.816;2022-10-13T04:51:57;13.40;99.90
48686;DHT22;34485;51.536;3.816;2022-10-13T04:54:23;13.40;99.90
48686;DHT22;34485;51.536;3.816;2022-10-13T04:56:49;13.40;99.90
48686;DHT22;34485;51.536;3.816;2022-10-13T04:59:14;13.40;99.90
48686;DHT22;34485;51.536;3.816;2022-10-13T05:01:40;13.40;99.90
48686;DHT22;34485;51.536;3.816;2022-10-13T05:04:06;13.40;99.90
48686;DHT22;34485;51.536;3.816;2022-10-13T05:06:34;13.30;99.90
48686;DHT22;34485;51.536;3.816;2022-10-13T05:09:00;13.30;99.90
48686;DHT22;34485;51.536;3.816;2022-10-13T05:11:29;13.30;99.90
48686;DHT22;34485;51.536;3.816;2022-10-13T05:13:55;13.30;99.90
48686;DHT22;34485;51.536;3.816;2022-10-13T05:16:22;13.30;99.90
48686;DHT22;34485;51.536;3.816;2022-10-13T05:18:49;13.30;99.90
48686;DHT22;34485;51.536;3.816;2022-10-13T05:21:20;13.30;99.90
48686;DHT22;34485;51.536;3.816;2022-10-13T05:23:46;13.30;99.90
48686;DHT22;34485;51.536;3.816;2022-10-13T05:26:15;13.30;99.90
48686;DHT22;34485;51.536;3.816;2022-10-13T05:28:41;13.30;99.90
48686;DHT22;34485;51.536;3.816;2022-10-13T05:31:19;13.40;99.90
48686;DHT22;34485;51.536;3.816;2022-10-13T05:33:45;13.30;99.90
48686;DHT22;34485;51.536;3.816;2022-10-13T05:36:20;13.40;99.90
48686;DHT22;34485;51.536;3.816;2022-10-13T05:39:05;13.40;99.90
48686;DHT22;34485;51.536;3.816;2022-10-13T05:41:32;13.50;99.90
48686;DHT22;34485;51.536;3.816;2022-10-13T05:44:03;13.50;99.90
48686;DHT22;34485;51.536;3.816;2022-10-13T05:46:28;13.50;99.90
48686;DHT22;34485;51.536;3.816;2022-10-13T05:48:54;13.40;99.90
48686;DHT22;34485;51.536;3.816;2022-10-13T05:51:24;13.50;99.90
48686;DHT22;34485;51.536;3.816;2022-10-13T05:54:04;13.40;99.90
48686;DHT22;34485;51.536;3.816;2022-10-13T05:56:37;13.40;99.90
48686;DHT22;34485;51.536;3.816;2022-10-13T05:59:07;13.40;99.90
48686;DHT22;34485;51.536;3.816;2022-10-13T06:01:37;13.50;99.90
48686;DHT22;34485;51.536;3.816;2022-10-13T06:04:07;13.50;99.90
48686;DHT22;34485;51.536;3.816;2022-10-13T06:06:33;13.50;99.90
48686;DHT22;34485;51.536;3.816;2022-10-13T06:09:00;13.50;99.90
48686;DHT22;34485;51.536;3.816;2022-10-13T06:11:26;13.40;99.90
48686;DHT22;34485;51.536;3.816;2022-10-13T06:13:52;13.40;99.90
48686;DHT22;34485;51.536;3.816;2022-10-13T06:16:17;13.40;99.90
48686;DHT22;34485;51.536;3.816;2022-10-13T06:18:43;13.40;99.90
48686;DHT22;34485;51.536;3.816;2022-10-13T06:21:08;13.40;99.90
48686;DHT22;34485;51.536;3.816;2022-10-13T06:23:34;13.40;99.90
48686;DHT22;34485;51.536;3.816;2022-10-13T06:25:59;13.40;99.90
48686;DHT22;34485;51.536;3.816;2022-10-13T06:28:25;13.40;99.90
48686;DHT22;34485;51.536;3.816;2022-10-13T06:30:51;13.40;99.90
48686;DHT22;34485;51.536;3.816;2022-10-13T06:33:22;13.50;99.90
48686;DHT22;34485;51.536;3.816;2022-10-13T06:35:49;13.40;99.90
48686;DHT22;34485;51.536;3.816;2022-10-13T06:38:15;13.40;99.90
48686;DHT22;34485;51.536;3.816;2022-10-13T06:40:42;13.40;99.90
48686;DHT22;34485;51.536;3.816;2022-10-13T06:43:08;13.40;99.90
48686;DHT22;34485;51.536;3.816;2022-10-13T06:45:33;13.40;99.90
48686;DHT22;34485;51.536;3.816;2022-10-13T06:47:59;13.40;99.90
48686;DHT22;34485;51.536;3.816;2022-10-13T06:50:24;13.30;99.90
48686;DHT22;34485;51.536;3.816;2022-10-13T06:52:50;13.30;99.90
48686;DHT22;34485;51.536;3.816;2022-10-13T06:55:16;13.30;99.90
48686;DHT22;34485;51.536;3.816;2022-10-13T06:57:41;13.30;99.90
48686;DHT22;34485;51.536;3.816;2022-10-13T07:00:08;13.30;99.90
48686;DHT22;34485;51.536;3.816;2022-10-13T07:02:34;13.40;99.90
48686;DHT22;34485;51.536;3.816;2022-10-13T07:04:59;13.40;99.90
48686;DHT22;34485;51.536;3.816;2022-10-13T07:07:25;13.40;99.90
48686;DHT22;34485;51.536;3.816;2022-10-13T07:09:51;13.40;99.90
48686;DHT22;34485;51.536;3.816;2022-10-13T07:12:16;13.50;99.90
48686;DHT22;34485;51.536;3.816;2022-10-13T07:14:42;13.50;99.90
48686;DHT22;34485;51.536;3.816;2022-10-13T07:17:08;13.50;99.90
48686;DHT22;34485;51.536;3.816;2022-10-13T07:19:33;13.40;99.90
48686;DHT22;34485;51.536;3.816;2022-10-13T07:21:59;13.50;99.90
48686;DHT22;34485;51.536;3.816;2022-10-13T07:24:25;13.50;99.90
48686;DHT22;34485;51.536;3.816;2022-10-13T07:26:50;13.60;99.90
48686;DHT22;34485;51.536;3.816;2022-10-13T07:29:16;13.70;99.90
48686;DHT22;34485;51.536;3.816;2022-10-13T07:31:43;13.70;99.90
48686;DHT22;34485;51.536;3.816;2022-10-13T07:34:09;13.70;99.90
48686;DHT22;34485;51.536;3.816;2022-10-13T07:36:35;13.80;99.90
48686;DHT22;34485;51.536;3.816;2022-10-13T07:39:02;13.90;99.90
48686;DHT22;34485;51.536;3.816;2022-10-13T07:41:28;14.00;99.90
48686;DHT22;34485;51.536;3.816;2022-10-13T07:43:55;14.00;99.90
48686;DHT22;34485;51.536;3.816;2022-10-13T07:46:21;14.00;99.90
48686;DHT22;34485;51.536;3.816;2022-10-13T07:48:47;14.10;99.90
48686;DHT22;34485;51.536;3.816;2022-10-13T07:51:13;14.10;99.90
48686;DHT22;34485;51.536;3.816;2022-10-13T07:53:40;14.00;99.90
48686;DHT22;34485;51.536;3.816;2022-10-13T07:56:08;13.90;99.90
48686;DHT22;34485;51.536;3.816;2022-10-13T07:58:39;13.90;99.90
48686;DHT22;34485;51.536;3.816;2022-10-13T08:01:05;13.90;99.90
48686;DHT22;34485;51.536;3.816;2022-10-13T08:03:31;13.90;99.90
48686;DHT22;34485;51.536;3.816;2022-10-13T08:06:01;14.00;99.90
48686;DHT22;34485;51.536;3.816;2022-10-13T08:08:28;14.10;99.90
48686;DHT22;34485;51.536;3.816;2022-10-13T08:10:54;14.10;99.90
48686;DHT22;34485;51.536;3.816;2022-10-13T08:13:24;14.10;99.90
48686;DHT22;34485;51.536;3.816;2022-10-13T08:15:50;14.10;99.90
48686;DHT22;34485;51.536;3.816;2022-10-13T08:18:16;14.10;99.90
48686;DHT22;34485;51.536;3.816;2022-10-13T08:20:43;14.10;99.90
48686;DHT22;34485;51.536;3.816;2022-10-13T08:23:09;14.10;99.90
48686;DHT22;34485;51.536;3.816;2022-10-13T08:25:38;14.10;99.90
48686;DHT22;34485;51.536;3.816;2022-10-13T08:28:06;14.20;99.90
48686;DHT22;34485;51.536;3.816;2022-10-13T08:30:32;14.20;99.90
48686;DHT22;34485;51.536;3.816;2022-10-13T08:32:57;14.40;99.90
48686;DHT22;34485;51.536;3.816;2022-10-13T08:35:23;14.50;99.90
48686;DHT22;34485;51.536;3.816;2022-10-13T08:37:49;14.60;99.90
48686;DHT22;34485;51.536;3.816;2022-10-13T08:40:17;14.80;99.90
48686;DHT22;34485;51.536;3.816;2022-10-13T08:42:44;15.20;99.90
48686;DHT22;34485;51.536;3.816;2022-10-13T08:45:20;15.50;99.90
48686;DHT22;34485;51.536;3.816;2022-10-13T08:48:01;15.60;99.90
48686;DHT22;34485;51.536;3.816;2022-10-13T08:50:31;15.70;99.90
48686;DHT22;34485;51.536;3.816;2022-10-13T08:53:00;15.80;99.90
48686;DHT22;34485;51.536;3.816;2022-10-13T08:57:52;15.90;99.90
48686;DHT22;34485;51.536;3.816;2022-10-13T09:00:18;15.70;99.90
48686;DHT22;34485;51.536;3.816;2022-10-13T09:02:44;15.50;99.90
48686;DHT22;34485;51.536;3.816;2022-10-13T09:05:21;15.40;99.90
48686;DHT22;34485;51.536;3.816;2022-10-13T09:07:51;15.20;99.90
48686;DHT22;34485;51.536;3.816;2022-10-13T09:10:17;15.10;99.90
48686;DHT22;34485;51.536;3.816;2022-10-13T09:12:43;15.00;99.90
48686;DHT22;34485;51.536;3.816;2022-10-13T09:15:10;14.90;99.90
48686;DHT22;34485;51.536;3.816;2022-10-13T09:17:40;14.80;99.90
48686;DHT22;34485;51.536;3.816;2022-10-13T09:20:09;14.80;99.90
48686;DHT22;34485;51.536;3.816;2022-10-13T09:22:40;14.80;99.90
48686;DHT22;34485;51.536;3.816;2022-10-13T09:30:36;14.70;99.90
48686;DHT22;34485;51.536;3.816;2022-10-13T09:33:13;14.80;99.90
48686;DHT22;34485;51.536;3.816;2022-10-13T09:36:12;14.80;99.90
48686;DHT22;34485;51.536;3.816;2022-10-13T09:38:40;15.00;99.90
48686;DHT22;34485;51.536;3.816;2022-10-13T09:48:47;15.20;99.90
48686;DHT22;34485;51.536;3.816;2022-10-13T09:53:55;15.00;99.90
48686;DHT22;34485;51.536;3.816;2022-10-13T09:59:14;14.90;99.90
48686;DHT22;34485;51.536;3.816;2022-10-13T10:04:18;14.90;99.90
48686;DHT22;34485;51.536;3.816;2022-10-13T10:06:45;14.90;99.90
48686;DHT22;34485;51.536;3.816;2022-10-13T10:11:46;14.80;99.90
48686;DHT22;34485;51.536;3.816;2022-10-13T10:14:29;14.80;99.90
48686;DHT22;34485;51.536;3.816;2022-10-13T10:20:05;14.70;99.90
48686;DHT22;34485;51.536;3.816;2022-10-13T10:23:03;14.70;99.90
48686;DHT22;34485;51.536;3.816;2022-10-13T10:30:35;14.80;99.90
48686;DHT22;34485;51.536;3.816;2022-10-13T10:33:19;14.90;99.90
48686;DHT22;34485;51.536;3.816;2022-10-13T10:36:10;14.90;99.90
48686;DHT22;34485;51.536;3.816;2022-10-13T10:38:47;14.90;99.90
48686;DHT22;34485;51.536;3.816;2022-10-13T10:41:39;14.80;99.90
48686;DHT22;34485;51.536;3.816;2022-10-13T10:44:28;14.90;99.90
48686;DHT22;34485;51.536;3.816;2022-10-13T10:47:00;15.00;99.90
48686;DHT22;34485;51.536;3.816;2022-10-13T10:49:32;15.10;99.90
48686;DHT22;34485;51.536;3.816;2022-10-13T10:52:00;15.30;99.90
48686;DHT22;34485;51.536;3.816;2022-10-13T10:54:52;15.40;99.90
48686;DHT22;34485;51.536;3.816;2022-10-13T10:57:50;15.60;99.90
48686;DHT22;34485;51.536;3.816;2022-10-13T11:00:19;15.80;99.90
48686;DHT22;34485;51.536;3.816;2022-10-13T11:06:04;16.30;99.90
48686;DHT22;34485;51.536;3.816;2022-10-13T11:08:41;16.40;99.90
48686;DHT22;34485;51.536;3.816;2022-10-13T11:13:53;16.30;99.90
48686;DHT22;34485;51.536;3.816;2022-10-13T11:16:34;16.30;99.90
48686;DHT22;34485;51.536;3.816;2022-10-13T11:19:01;16.30;99.90
48686;DHT22;34485;51.536;3.816;2022-10-13T11:49:43;15.70;99.90
48686;DHT22;34485;51.536;3.816;2022-10-13T11:55:00;15.70;99.90
48686;DHT22;34485;51.536;3.816;2022-10-13T11:57:27;15.60;99.90
48686;DHT22;34485;51.536;3.816;2022-10-13T11:59:55;15.60;99.90
48686;DHT22;34485;51.536;3.816;2022-10-13T12:02:23;15.60;99.90
48686;DHT22;34485;51.536;3.816;2022-10-13T12:07:34;15.50;99.90
48686;DHT22;34485;51.536;3.816;2022-10-13T12:10:04;15.40;99.90
48686;DHT22;34485;51.536;3.816;2022-10-13T12:12:31;15.40;99.90
48686;DHT22;34485;51.536;3.816;2022-10-13T12:14:57;15.40;99.90
48686;DHT22;34485;51.536;3.816;2022-10-13T12:19:56;15.50;99.90
48686;DHT22;34485;51.536;3.816;2022-10-13T12:22:23;15.50;99.90
48686;DHT22;34485;51.536;3.816;2022-10-13T12:24:56;15.60;99.90
48686;DHT22;34485;51.536;3.816;2022-10-13T12:27:22;15.70;99.90
48686;DHT22;34485;51.536;3.816;2022-10-13T12:29:48;15.80;99.90
48686;DHT22;34485;51.536;3.816;2022-10-13T12:32:18;16.00;99.90
48686;DHT22;34485;51.536;3.816;2022-10-13T12:34:44;16.10;99.90
48686;DHT22;34485;51.536;3.816;2022-10-13T12:37:31;16.20;99.90
48686;DHT22;34485;51.536;3.816;2022-10-13T12:39:58;16.30;99.90
48686;DHT22;34485;51.536;3.816;2022-10-13T12:42:29;16.30;99.90
48686;DHT22;34485;51.536;3.816;2022-10-13T12:44:57;16.40;99.90
48686;DHT22;34485;51.536;3.816;2022-10-13T12:52:54;16.10;99.90
48686;DHT22;34485;51.536;3.816;2022-10-13T12:55:21;15.90;99.90
48686;DHT22;34485;51.536;3.816;2022-10-13T12:57:49;15.70;99.90
48686;DHT22;34485;51.536;3.816;2022-10-13T13:03:00;15.60;99.90
48686;DHT22;34485;51.536;3.816;2022-10-13T13:05:36;15.60;99.90
48686;DHT22;34485;51.536;3.816;2022-10-13T13:08:23;15.70;99.90
48686;DHT22;34485;51.536;3.816;2022-10-13T13:10:56;15.80;99.90
48686;DHT22;34485;51.536;3.816;2022-10-13T13:13:23;16.00;99.90
48686;DHT22;34485;51.536;3.816;2022-10-13T13:15:49;16.00;99.90
48686;DHT22;34485;51.536;3.816;2022-10-13T13:18:37;16.10;99.90
48686;DHT22;34485;51.536;3.816;2022-10-13T13:21:15;16.10;99.90
48686;DHT22;34485;51.536;3.816;2022-10-13T13:23:42;16.20;99.90
48686;DHT22;34485;51.536;3.816;2022-10-13T13:26:15;16.30;99.90
48686;DHT22;34485;51.536;3.816;2022-10-13T13:29:01;16.40;99.90
48686;DHT22;34485;51.536;3.816;2022-10-13T13:31:27;16.50;99.90
48686;DHT22;34485;51.536;3.816;2022-10-13T13:33:53;16.60;99.90
48686;DHT22;34485;51.536;3.816;2022-10-13T13:36:23;16.70;99.90
48686;DHT22;34485;51.536;3.816;2022-10-13T13:38:50;16.70;99.90
48686;DHT22;34485;51.536;3.816;2022-10-13T13:41:16;16.80;99.90
48686;DHT22;34485;51.536;3.816;2022-10-13T13:43:42;16.80;99.90
48686;DHT22;34485;51.536;3.816;2022-10-13T13:46:16;16.90;99.90
48686;DHT22;34485;51.536;3.816;2022-10-13T13:48:43;17.00;99.60
48686;DHT22;34485;51.536;3.816;2022-10-13T13:51:09;17.10;99.70
48686;DHT22;34485;51.536;3.816;2022-10-13T13:53:35;17.10;98.40
48686;DHT22;34485;51.536;3.816;2022-10-13T13:56:01;17.20;97.90
48686;DHT22;34485;51.536;3.816;2022-10-13T13:58:26;17.30;97.00
48686;DHT22;34485;51.536;3.816;2022-10-13T14:00:52;17.30;96.80
48686;DHT22;34485;51.536;3.816;2022-10-13T14:03:18;17.20;96.90
48686;DHT22;34485;51.536;3.816;2022-10-13T14:05:43;17.10;96.20
48686;DHT22;34485;51.536;3.816;2022-10-13T14:08:09;17.00;97.10
48686;DHT22;34485;51.536;3.816;2022-10-13T14:10:34;16.80;97.70
48686;DHT22;34485;51.536;3.816;2022-10-13T14:13:03;16.80;98.60
48686;DHT22;34485;51.536;3.816;2022-10-13T14:15:28;16.70;99.30
48686;DHT22;34485;51.536;3.816;2022-10-13T14:17:54;16.80;99.90
48686;DHT22;34485;51.536;3.816;2022-10-13T14:20:20;16.80;99.90
48686;DHT22;34485;51.536;3.816;2022-10-13T14:22:46;16.80;99.90
48686;DHT22;34485;51.536;3.816;2022-10-13T14:25:12;16.80;99.90
48686;DHT22;34485;51.536;3.816;2022-10-13T14:27:38;16.70;99.90
48686;DHT22;34485;51.536;3.816;2022-10-13T14:30:04;16.60;99.90
48686;DHT22;34485;51.536;3.816;2022-10-13T14:32:30;16.50;99.90
48686;DHT22;34485;51.536;3.816;2022-10-13T14:34:56;16.50;99.90
48686;DHT22;34485;51.536;3.816;2022-10-13T14:37:21;16.50;99.90
48686;DHT22;34485;51.536;3.816;2022-10-13T14:39:47;16.60;99.90
48686;DHT22;34485;51.536;3.816;2022-10-13T14:42:13;16.70;99.90
48686;DHT22;34485;51.536;3.816;2022-10-13T14:44:38;16.80;99.90
48686;DHT22;34485;51.536;3.816;2022-10-13T14:47:04;16.90;99.90
48686;DHT22;34485;51.536;3.816;2022-10-13T14:49:29;16.90;99.90
48686;DHT22;34485;51.536;3.816;2022-10-13T14:51:55;16.90;99.60
48686;DHT22;34485;51.536;3.816;2022-10-13T14:54:20;16.90;99.30
48686;DHT22;34485;51.536;3.816;2022-10-13T14:56:46;16.90;99.30
48686;DHT22;34485;51.536;3.816;2022-10-13T14:59:12;16.90;99.30
48686;DHT22;34485;51.536;3.816;2022-10-13T15:01:39;16.90;99.30
48686;DHT22;34485;51.536;3.816;2022-10-13T15:04:06;16.90;99.30
48686;DHT22;34485;51.536;3.816;2022-10-13T15:06:32;16.90;99.00
48686;DHT22;34485;51.536;3.816;2022-10-13T15:08:58;16.90;98.20
48686;DHT22;34485;51.536;3.816;2022-10-13T15:11:24;16.80;98.30
48686;DHT22;34485;51.536;3.816;2022-10-13T15:13:50;16.70;99.10
48686;DHT22;34485;51.536;3.816;2022-10-13T15:16:20;16.50;99.90
48686;DHT22;34485;51.536;3.816;2022-10-13T15:18:46;16.40;99.90
48686;DHT22;34485;51.536;3.816;2022-10-13T15:21:12;16.30;99.90
48686;DHT22;34485;51.536;3.816;2022-10-13T15:23:38;16.30;99.90
48686;DHT22;34485;51.536;3.816;2022-10-13T15:26:04;16.30;99.90
48686;DHT22;34485;51.536;3.816;2022-10-13T15:28:36;16.20;99.90
48686;DHT22;34485;51.536;3.816;2022-10-13T15:31:02;16.20;99.90
48686;DHT22;34485;51.536;3.816;2022-10-13T15:33:28;16.20;99.90
48686;DHT22;34485;51.536;3.816;2022-10-13T15:35:54;16.20;99.90
48686;DHT22;34485;51.536;3.816;2022-10-13T15:38:20;16.10;99.90
48686;DHT22;34485;51.536;3.816;2022-10-13T15:40:47;16.10;99.90
48686;DHT22;34485;51.536;3.816;2022-10-13T15:43:13;16.10;99.90
48686;DHT22;34485;51.536;3.816;2022-10-13T15:45:39;16.10;99.90
48686;DHT22;34485;51.536;3.816;2022-10-13T15:48:07;16.10;99.90
48686;DHT22;34485;51.536;3.816;2022-10-13T15:50:33;16.10;99.90
48686;DHT22;34485;51.536;3.816;2022-10-13T15:53:02;16.10;99.90
48686;DHT22;34485;51.536;3.816;2022-10-13T15:55:28;16.10;99.90
48686;DHT22;34485;51.536;3.816;2022-10-13T15:57:54;16.00;99.90
48686;DHT22;34485;51.536;3.816;2022-10-13T16:00:19;16.00;99.90
48686;DHT22;34485;51.536;3.816;2022-10-13T16:02:48;16.00;99.90
48686;DHT22;34485;51.536;3.816;2022-10-13T16:05:14;16.00;99.90
48686;DHT22;34485;51.536;3.816;2022-10-13T16:07:40;15.90;99.90
48686;DHT22;34485;51.536;3.816;2022-10-13T16:10:07;15.90;99.90
48686;DHT22;34485;51.536;3.816;2022-10-13T16:12:33;15.90;99.90
48686;DHT22;34485;51.536;3.816;2022-10-13T16:14:59;15.80;99.90
48686;DHT22;34485;51.536;3.816;2022-10-13T16:17:24;15.80;99.90
48686;DHT22;34485;51.536;3.816;2022-10-13T16:19:50;15.80;99.90
48686;DHT22;34485;51.536;3.816;2022-10-13T16:22:16;15.70;99.90
48686;DHT22;34485;51.536;3.816;2022-10-13T16:24:41;15.70;99.90
48686;DHT22;34485;51.536;3.816;2022-10-13T16:27:07;15.60;99.90
48686;DHT22;34485;51.536;3.816;2022-10-13T16:29:33;15.50;99.90
48686;DHT22;34485;51.536;3.816;2022-10-13T16:31:58;15.50;99.90
48686;DHT22;34485;51.536;3.816;2022-10-13T16:34:25;15.40;99.90
48686;DHT22;34485;51.536;3.816;2022-10-13T16:36:51;15.40;99.90
48686;DHT22;34485;51.536;3.816;2022-10-13T16:39:17;15.40;99.90
48686;DHT22;34485;51.536;3.816;2022-10-13T16:41:42;15.40;99.90
48686;DHT22;34485;51.536;3.816;2022-10-13T16:44:08;15.30;99.90
48686;DHT22;34485;51.536;3.816;2022-10-13T16:46:34;15.20;99.90
48686;DHT22;34485;51.536;3.816;2022-10-13T16:48:59;15.20;99.90
48686;DHT22;34485;51.536;3.816;2022-10-13T16:51:25;15.10;99.90
48686;DHT22;34485;51.536;3.816;2022-10-13T16:53:54;15.00;99.90
48686;DHT22;34485;51.536;3.816;2022-10-13T16:56:21;14.90;99.90
48686;DHT22;34485;51.536;3.816;2022-10-13T16:58:48;14.90;99.90
48686;DHT22;34485;51.536;3.816;2022-10-13T17:01:14;14.80;99.90
48686;DHT22;34485;51.536;3.816;2022-10-13T17:03:42;14.70;99.90
48686;DHT22;34485;51.536;3.816;2022-10-13T17:06:09;14.70;99.90
48686;DHT22;34485;51.536;3.816;2022-10-13T17:08:35;14.70;99.90
48686;DHT22;34485;51.536;3.816;2022-10-13T17:11:02;14.60;99.90
48686;DHT22;34485;51.536;3.816;2022-10-13T17:13:29;14.60;99.90
48686;DHT22;34485;51.536;3.816;2022-10-13T17:15:56;14.50;99.90
48686;DHT22;34485;51.536;3.816;2022-10-13T17:18:22;14.50;99.90
48686;DHT22;34485;51.536;3.816;2022-10-13T17:20:58;14.50;99.90
48686;DHT22;34485;51.536;3.816;2022-10-13T17:23:25;14.40;99.90
48686;DHT22;34485;51.536;3.816;2022-10-13T17:25:51;14.40;99.90
48686;DHT22;34485;51.536;3.816;2022-10-13T17:28:18;14.40;99.90